sensor_id;sensor_type;location;lat;lon;timestamp;temperature;humidity
3678;DHT22;1855;50.934;6.958;2024-02-23T05:29:26;5.10;99.90
3678;DHT22;1855;50.934;6.958;2024-02-23T05:31:53;5.10;99.90
3678;DHT22;1855;50.934;6.958;2024-02-23T05:34:21;5.00;99.90
3678;DHT22;1855;50.934;6.958;2024-02-23T05:36:48;5.00;99.90
3678;DHT22;1855;50.934;6.958;2024-02-23T05:39:16;4.90;99.90
3678;DHT22;1855;50.934;6.958;2024-02-23T05:41:43;4.90;99.90
3678;DHT22;1855;50.934;6.958;2024-02-23T05:44:10;4.90;99.90
3678;DHT22;1855;50.934;6.958;2024-02-23T05:46:40;4.90;99.90
3678;DHT22;1855;50.934;6.958;2024-02-23T05:49:06;4.90;99.90
3678;DHT22;1855;50.934;6.958;2024-02-23T05:51:34;4.80;99.90
3678;DHT22;1855;50.934;6.958;2024-02-23T05:54:01;4.80;99.90
3678;DHT22;1855;50.934;6.958;2024-02-23T05:56:28;4.80;99.90
3678;DHT22;1855;50.934;6.958;2024-02-23T05:58:55;4.80;99.90
3678;DHT22;1855;50.934;6.958;2024-02-23T06:01:21;4.70;99.90
3678;DHT22;1855;50.934;6.958;2024-02-23T06:03:50;4.80;99.90
3678;DHT22;1855;50.934;6.958;2024-02-23T06:06:18;4.80;99.90
3678;DHT22;1855;50.934;6.958;2024-02-23T06:08:45;4.80;99.90
3678;DHT22;1855;50.934;6.958;2024-02-23T06:11:15;4.80;99.90
3678;DHT22;1855;50.934;6.958;2024-02-23T06:13:41;4.80;99.90
3678;DHT22;1855;50.934;6.958;2024-02-23T06:16:10;4.90;99.90
3678;DHT22;1855;50.934;6.958;2024-02-23T06:18:37;5.00;99.90
3678;DHT22;1855;50.934;6.958;2024-02-23T06:21:12;5.00;99.90
3678;DHT22;1855;50.934;6.958;2024-02-23T06:23:40;5.10;99.90
3678;DHT22;1855;50.934;6.958;2024-02-23T06:26:07;5.10;99.90
3678;DHT22;1855;50.934;6.958;2024-02-23T06:28:34;5.00;99.90
3678;DHT22;1855;50.934;6.958;2024-02-23T06:31:02;5.00;99.90
3678;DHT22;1855;50.934;6.958;2024-02-23T06:33:30;5.00;99.90
3678;DHT22;1855;50.934;6.958;2024-02-23T06:35:57;5.00;99.90
3678;DHT22;1855;50.934;6.958;2024-02-23T06:38:25;5.00;99.90
3678;DHT22;1855;50.934;6.958;2024-02-23T06:40:51;4.90;99.90
3678;DHT22;1855;50.934;6.958;2024-02-23T06:43:18;5.00;99.90
3678;DHT22;1855;50.934;6.958;2024-02-23T06:45:45;5.00;99.90
3678;DHT22;1855;50.934;6.958;2024-02-23T06:48:12;5.00;99.90
3678;DHT22;1855;50.934;6.958;2024-02-23T06:50:38;5.00;99.90
3678;DHT22;1855;50.934;6.958;2024-02-23T06:53:05;4.90;99.90
3678;DHT22;1855;50.934;6.958;2024-02-23T06:55:34;4.80;99.90
3678;DHT22;1855;50.934;6.958;2024-02-23T06:58:01;4.90;99.90
3678;DHT22;1855;50.934;6.958;2024-02-23T07:00:30;4.90;99.90
3678;DHT22;1855;50.934;6.958;2024-02-23T07:02:56;4.90;99.90
3678;DHT22;1855;50.934;6.958;2024-02-23T07:05:24;4.90;99.90
3678;DHT22;1855;50.934;6.958;2024-02-23T07:07:51;4.90;99.90
3678;DHT22;1855;50.934;6.958;2024-02-23T07:10:18;4.90;99.90
3678;DHT22;1855;50.934;6.958;2024-02-23T07:12:47;5.00;99.90
3678;DHT22;1855;50.934;6.958;2024-02-23T07:15:14;5.10;99.90
3678;DHT22;1855;50.934;6.958;2024-02-23T07:17:41;5.10;99.90
3678;DHT22;1855;50.934;6.958;2024-02-23T07:20:08;5.20;99.90
3678;DHT22;1855;50.934;6.958;2024-02-23T07:22:35;5.20;99.90
3678;DHT22;1855;50.934;6.958;2024-02-23T07:25:03;5.30;99.90
3678;DHT22;1855;50.934;6.958;2024-02-23T07:27:30;5.40;99.90
3678;DHT22;1855;50.934;6.958;2024-02-23T07:29:58;5.40;99.90
3678;DHT22;1855;50.934;6.958;2024-02-23T07:32:25;5.50;99.90
3678;DHT22;1855;50.934;6.958;2024-02-23T07:34:52;5.60;99.90
3678;DHT22;1855;50.934;6.958;2024-02-23T07:37:19;5.60;99.90
3678;DHT22;1855;50.934;6.958;2024-02-23T07:39:45;5.60;99.90
3678;DHT22;1855;50.934;6.958;2024-02-23T07:42:12;5.70;99.90
3678;DHT22;1855;50.934;6.958;2024-02-23T07:44:43;5.70;99.90
3678;DHT22;1855;50.934;6.958;2024-02-23T07:47:12;5.70;99.90
3678;DHT22;1855;50.934;6.958;2024-02-23T07:49:38;5.70;99.90
3678;DHT22;1855;50.934;6.958;2024-02-23T07:52:06;5.70;99.90
3678;DHT22;1855;50.934;6.958;2024-02-23T07:54:33;5.90;99.90
3678;DHT22;1855;50.934;6.958;2024-02-23T07:57:00;6.00;99.90
3678;DHT22;1855;50.934;6.958;2024-02-23T07:59:27;6.10;99.90
3678;DHT22;1855;50.934;6.958;2024-02-23T08:01:54;6.20;99.90
3678;DHT22;1855;50.934;6.958;2024-02-23T08:04:22;6.30;99.90
3678;DHT22;1855;50.934;6.958;2024-02-23T08:06:49;6.40;99.90
3678;DHT22;1855;50.934;6.958;2024-02-23T08:09:16;6.50;99.90
3678;DHT22;1855;50.934;6.958;2024-02-23T08:11:43;6.60;99.90
3678;DHT22;1855;50.934;6.958;2024-02-23T08:14:11;6.70;99.90
3678;DHT22;1855;50.934;6.958;2024-02-23T08:16:38;6.80;99.90
3678;DHT22;1855;50.934;6.958;2024-02-23T08:19:04;7.00;99.90
3678;DHT22;1855;50.934;6.958;2024-02-23T08:21:32;7.00;99.90
3678;DHT22;1855;50.934;6.958;2024-02-23T08:23:59;6.90;99.90
3678;DHT22;1855;50.934;6.958;2024-02-23T08:26:26;6.90;99.90
3678;DHT22;1855;50.934;6.958;2024-02-23T08:28:52;6.90;99.90
3678;DHT22;1855;50.934;6.958;2024-02-23T08:31:19;7.00;99.90
3678;DHT22;1855;50.934;6.958;2024-02-23T08:33:46;7.10;99.90
3678;DHT22;1855;50.934;6.958;2024-02-23T08:36:13;7.10;99.90
3678;DHT22;1855;50.934;6.958;2024-02-23T08:38:41;7.10;99.90
3678;DHT22;1855;50.934;6.958;2024-02-23T08:41:08;7.10;99.90
3678;DHT22;1855;50.934;6.958;2024-02-23T08:43:35;7.20;99.90
3678;DHT22;1855;50.934;6.958;2024-02-23T08:46:02;7.30;99.90
3678;DHT22;1855;50.934;6.958;2024-02-23T08:48:28;7.30;99.90
3678;DHT22;1855;50.934;6.958;2024-02-23T08:50:55;7.40;99.90
3678;DHT22;1855;50.934;6.958;2024-02-23T08:53:22;7.50;99.90
3678;DHT22;1855;50.934;6.958;2024-02-23T08:55:50;7.50;99.90
3678;DHT22;1855;50.934;6.958;2024-02-23T08:58:17;7.50;99.90
3678;DHT22;1855;50.934;6.958;2024-02-23T09:00:43;7.60;99.90
3678;DHT22;1855;50.934;6.958;2024-02-23T09:03:10;7.60;99.90
3678;DHT22;1855;50.934;6.958;2024-02-23T09:05:37;7.60;99.90
3678;DHT22;1855;50.934;6.958;2024-02-23T09:08:04;7.50;99.90
3678;DHT22;1855;50.934;6.958;2024-02-23T09:10:31;7.60;99.90
3678;DHT22;1855;50.934;6.958;2024-02-23T09:12:59;7.60;99.90
3678;DHT22;1855;50.934;6.958;2024-02-23T09:15:26;7.60;99.90
3678;DHT22;1855;50.934;6.958;2024-02-23T09:17:53;7.60;99.90
3678;DHT22;1855;50.934;6.958;2024-02-23T09:20:19;7.60;99.90
3678;DHT22;1855;50.934;6.958;2024-02-23T09:22:46;7.60;99.90
3678;DHT22;1855;50.934;6.958;2024-02-23T09:25:13;7.70;99.90
3678;DHT22;1855;50.934;6.958;2024-02-23T09:27:40;7.60;99.90
3678;DHT22;1855;50.934;6.958;2024-02-23T09:30:12;7.70;99.90
3678;DHT22;1855;50.934;6.958;2024-02-23T09:32:39;7.70;99.90
3678;DHT22;1855;50.934;6.958;2024-02-23T09:35:06;7.80;99.90
3678;DHT22;1855;50.934;6.958;2024-02-23T09:37:33;7.80;99.90
3678;DHT22;1855;50.934;6.958;2024-02-23T09:40:00;7.90;99.90
3678;DHT22;1855;50.934;6.958;2024-02-23T09:42:28;7.90;99.90
3678;DHT22;1855;50.934;6.958;2024-02-23T09:44:59;8.00;99.90
3678;DHT22;1855;50.934;6.958;2024-02-23T09:47:28;8.20;99.90
3678;DHT22;1855;50.934;6.958;2024-02-23T09:49:55;8.40;95.10
3678;DHT22;1855;50.934;6.958;2024-02-23T09:52:22;8.50;96.30
3678;DHT22;1855;50.934;6.958;2024-02-23T09:54:49;8.60;95.60
3678;DHT22;1855;50.934;6.958;2024-02-23T09:57:16;8.70;93.80
3678;DHT22;1855;50.934;6.958;2024-02-23T09:59:43;8.70;93.80
3678;DHT22;1855;50.934;6.958;2024-02-23T10:02:15;8.70;98.90
3678;DHT22;1855;50.934;6.958;2024-02-23T10:04:44;8.90;96.10
3678;DHT22;1855;50.934;6.958;2024-02-23T10:07:10;9.10;94.70
3678;DHT22;1855;50.934;6.958;2024-02-23T10:09:37;9.20;91.30
3678;DHT22;1855;50.934;6.958;2024-02-23T10:12:04;9.30;88.40
3678;DHT22;1855;50.934;6.958;2024-02-23T10:14:31;9.40;87.90
3678;DHT22;1855;50.934;6.958;2024-02-23T10:16:57;9.60;87.60
3678;DHT22;1855;50.934;6.958;2024-02-23T10:19:25;9.80;84.30
3678;DHT22;1855;50.934;6.958;2024-02-23T10:21:56;9.90;80.50
3678;DHT22;1855;50.934;6.958;2024-02-23T10:24:23;9.90;77.50
3678;DHT22;1855;50.934;6.958;2024-02-23T10:26:51;10.00;79.80
3678;DHT22;1855;50.934;6.958;2024-02-23T10:29:17;10.20;77.20
3678;DHT22;1855;50.934;6.958;2024-02-23T10:31:47;10.10;76.80
3678;DHT22;1855;50.934;6.958;2024-02-23T10:34:15;9.80;76.30
3678;DHT22;1855;50.934;6.958;2024-02-23T10:36:44;9.40;79.50
3678;DHT22;1855;50.934;6.958;2024-02-23T10:39:17;9.30;82.90
3678;DHT22;1855;50.934;6.958;2024-02-23T10:41:48;9.50;84.20
3678;DHT22;1855;50.934;6.958;2024-02-23T10:44:18;9.60;81.70
3678;DHT22;1855;50.934;6.958;2024-02-23T10:46:45;9.70;80.30
3678;DHT22;1855;50.934;6.958;2024-02-23T10:49:15;9.80;78.90
3678;DHT22;1855;50.934;6.958;2024-02-23T10:51:42;9.90;79.20
3678;DHT22;1855;50.934;6.958;2024-02-23T10:54:10;9.70;79.00
3678;DHT22;1855;50.934;6.958;2024-02-23T10:56:39;9.60;79.90
3678;DHT22;1855;50.934;6.958;2024-02-23T10:59:08;9.50;80.90
3678;DHT22;1855;50.934;6.958;2024-02-23T11:01:35;9.40;84.40
3678;DHT22;1855;50.934;6.958;2024-02-23T11:04:03;9.40;89.70
3678;DHT22;1855;50.934;6.958;2024-02-23T11:06:33;9.50;90.50
3678;DHT22;1855;50.934;6.958;2024-02-23T11:09:07;9.70;86.00
3678;DHT22;1855;50.934;6.958;2024-02-23T11:11:34;9.80;80.50
3678;DHT22;1855;50.934;6.958;2024-02-23T11:14:07;9.70;79.90
3678;DHT22;1855;50.934;6.958;2024-02-23T11:16:38;9.50;82.00
3678;DHT22;1855;50.934;6.958;2024-02-23T11:19:06;9.50;83.20
3678;DHT22;1855;50.934;6.958;2024-02-23T11:21:34;9.40;83.60
3678;DHT22;1855;50.934;6.958;2024-02-23T11:24:03;9.40;89.70
3678;DHT22;1855;50.934;6.958;2024-02-23T11:26:31;9.40;92.90
3678;DHT22;1855;50.934;6.958;2024-02-23T11:28:59;9.50;91.60
3678;DHT22;1855;50.934;6.958;2024-02-23T11:31:30;9.50;84.30
3678;DHT22;1855;50.934;6.958;2024-02-23T11:33:57;9.60;81.80
3678;DHT22;1855;50.934;6.958;2024-02-23T11:36:28;9.60;82.60
3678;DHT22;1855;50.934;6.958;2024-02-23T11:38:56;9.60;82.20
3678;DHT22;1855;50.934;6.958;2024-02-23T11:41:24;9.50;80.60
3678;DHT22;1855;50.934;6.958;2024-02-23T11:43:52;9.60;79.90
3678;DHT22;1855;50.934;6.958;2024-02-23T11:46:19;9.60;79.40
3678;DHT22;1855;50.934;6.958;2024-02-23T11:48:48;9.50;79.20
3678;DHT22;1855;50.934;6.958;2024-02-23T11:51:19;9.50;78.50
3678;DHT22;1855;50.934;6.958;2024-02-23T11:53:47;9.60;77.30
3678;DHT22;1855;50.934;6.958;2024-02-23T11:56:14;9.50;76.80
3678;DHT22;1855;50.934;6.958;2024-02-23T11:58:41;9.40;76.00
3678;DHT22;1855;50.934;6.958;2024-02-23T12:01:08;9.40;77.80
3678;DHT22;1855;50.934;6.958;2024-02-23T12:03:35;9.40;77.70
3678;DHT22;1855;50.934;6.958;2024-02-23T12:06:07;9.40;76.40
3678;DHT22;1855;50.934;6.958;2024-02-23T12:08:35;9.30;78.20
3678;DHT22;1855;50.934;6.958;2024-02-23T12:11:04;9.30;77.80
3678;DHT22;1855;50.934;6.958;2024-02-23T12:13:32;9.30;80.10
3678;DHT22;1855;50.934;6.958;2024-02-23T12:16:00;9.30;79.50
3678;DHT22;1855;50.934;6.958;2024-02-23T12:18:28;9.30;79.30
3678;DHT22;1855;50.934;6.958;2024-02-23T12:20:59;9.30;79.30
3678;DHT22;1855;50.934;6.958;2024-02-23T12:23:27;9.30;79.60
3678;DHT22;1855;50.934;6.958;2024-02-23T12:25:54;9.30;82.50
3678;DHT22;1855;50.934;6.958;2024-02-23T12:28:21;9.40;83.80
3678;DHT22;1855;50.934;6.958;2024-02-23T12:31:00;9.40;83.20
3678;DHT22;1855;50.934;6.958;2024-02-23T12:33:28;9.50;81.40
3678;DHT22;1855;50.934;6.958;2024-02-23T12:35:56;9.60;81.30
3678;DHT22;1855;50.934;6.958;2024-02-23T12:38:22;9.70;82.90
3678;DHT22;1855;50.934;6.958;2024-02-23T12:40:51;9.70;82.10
3678;DHT22;1855;50.934;6.958;2024-02-23T12:43:18;9.80;82.40
3678;DHT22;1855;50.934;6.958;2024-02-23T12:45:47;9.90;80.40
3678;DHT22;1855;50.934;6.958;2024-02-23T12:48:15;10.10;79.10
3678;DHT22;1855;50.934;6.958;2024-02-23T12:50:42;10.20;75.20
3678;DHT22;1855;50.934;6.958;2024-02-23T12:53:10;10.20;75.70
3678;DHT22;1855;50.934;6.958;2024-02-23T12:55:38;10.20;74.40
3678;DHT22;1855;50.934;6.958;2024-02-23T12:58:06;10.10;75.60
3678;DHT22;1855;50.934;6.958;2024-02-23T13:00:33;10.20;75.50
3678;DHT22;1855;50.934;6.958;2024-02-23T13:02:59;10.30;72.50
3678;DHT22;1855;50.934;6.958;2024-02-23T13:05:26;10.20;72.20
3678;DHT22;1855;50.934;6.958;2024-02-23T13:07:53;10.20;73.20
3678;DHT22;1855;50.934;6.958;2024-02-23T13:10:19;10.20;73.80
3678;DHT22;1855;50.934;6.958;2024-02-23T13:12:46;10.20;72.80
3678;DHT22;1855;50.934;6.958;2024-02-23T13:15:14;10.10;74.40
3678;DHT22;1855;50.934;6.958;2024-02-23T13:17:41;10.10;74.50
3678;DHT22;1855;50.934;6.958;2024-02-23T13:20:09;10.10;77.00
3678;DHT22;1855;50.934;6.958;2024-02-23T13:22:38;10.10;75.10
3678;DHT22;1855;50.934;6.958;2024-02-23T13:25:05;10.10;75.00
3678;DHT22;1855;50.934;6.958;2024-02-23T13:27:32;10.10;75.00
3678;DHT22;1855;50.934;6.958;2024-02-23T13:29:59;10.20;73.90
3678;DHT22;1855;50.934;6.958;2024-02-23T13:32:27;10.40;72.90
3678;DHT22;1855;50.934;6.958;2024-02-23T13:34:54;10.70;73.70
3678;DHT22;1855;50.934;6.958;2024-02-23T13:37:20;11.00;73.50
3678;DHT22;1855;50.934;6.958;2024-02-23T13:39:47;11.00;71.30
3678;DHT22;1855;50.934;6.958;2024-02-23T13:42:14;11.00;69.90
3678;DHT22;1855;50.934;6.958;2024-02-23T13:44:41;11.00;68.10
3678;DHT22;1855;50.934;6.958;2024-02-23T13:47:07;10.80;68.90
3678;DHT22;1855;50.934;6.958;2024-02-23T13:49:35;10.50;69.40
3678;DHT22;1855;50.934;6.958;2024-02-23T13:52:02;10.50;70.50
3678;DHT22;1855;50.934;6.958;2024-02-23T13:54:29;10.40;70.50
3678;DHT22;1855;50.934;6.958;2024-02-23T13:56:56;10.40;69.00
3678;DHT22;1855;50.934;6.958;2024-02-23T13:59:23;10.40;68.90
3678;DHT22;1855;50.934;6.958;2024-02-23T14:01:50;10.60;70.90
3678;DHT22;1855;50.934;6.958;2024-02-23T14:04:17;10.80;71.40
3678;DHT22;1855;50.934;6.958;2024-02-23T14:06:45;10.70;72.30
3678;DHT22;1855;50.934;6.958;2024-02-23T14:09:12;10.70;73.60
3678;DHT22;1855;50.934;6.958;2024-02-23T14:11:39;10.90;74.40
3678;DHT22;1855;50.934;6.958;2024-02-23T14:14:05;10.80;70.40
3678;DHT22;1855;50.934;6.958;2024-02-23T14:16:33;10.80;70.60
3678;DHT22;1855;50.934;6.958;2024-02-23T14:19:00;10.80;71.20
3678;DHT22;1855;50.934;6.958;2024-02-23T14:21:27;10.90;69.10
3678;DHT22;1855;50.934;6.958;2024-02-23T14:23:55;10.80;69.50
3678;DHT22;1855;50.934;6.958;2024-02-23T14:26:22;10.90;68.40
3678;DHT22;1855;50.934;6.958;2024-02-23T14:28:49;11.00;69.00
3678;DHT22;1855;50.934;6.958;2024-02-23T14:31:15;11.10;68.40
3678;DHT22;1855;50.934;6.958;2024-02-23T14:33:42;11.00;67.10
3678;DHT22;1855;50.934;6.958;2024-02-23T14:36:08;11.00;68.40
3678;DHT22;1855;50.934;6.958;2024-02-23T14:38:35;10.80;68.80
3678;DHT22;1855;50.934;6.958;2024-02-23T14:41:03;10.50;70.90
3678;DHT22;1855;50.934;6.958;2024-02-23T14:43:34;10.20;72.60
3678;DHT22;1855;50.934;6.958;2024-02-23T14:46:01;10.00;73.00
3678;DHT22;1855;50.934;6.958;2024-02-23T14:48:28;10.00;74.60
3678;DHT22;1855;50.934;6.958;2024-02-23T14:50:54;9.90;75.90
3678;DHT22;1855;50.934;6.958;2024-02-23T14:53:23;9.90;76.20
3678;DHT22;1855;50.934;6.958;2024-02-23T14:55:51;9.90;75.70
3678;DHT22;1855;50.934;6.958;2024-02-23T14:58:19;9.80;76.70
3678;DHT22;1855;50.934;6.958;2024-02-23T15:00:46;9.80;75.70
3678;DHT22;1855;50.934;6.958;2024-02-23T15:03:13;9.70;75.40
3678;DHT22;1855;50.934;6.958;2024-02-23T15:05:40;9.60;75.20
3678;DHT22;1855;50.934;6.958;2024-02-23T15:08:07;9.60;76.40
3678;DHT22;1855;50.934;6.958;2024-02-23T15:10:34;9.50;79.00
3678;DHT22;1855;50.934;6.958;2024-02-23T15:13:01;9.50;82.30
3678;DHT22;1855;50.934;6.958;2024-02-23T15:15:29;9.50;86.30
3678;DHT22;1855;50.934;6.958;2024-02-23T15:17:56;9.50;90.70
3678;DHT22;1855;50.934;6.958;2024-02-23T15:20:22;9.30;91.80
3678;DHT22;1855;50.934;6.958;2024-02-23T15:22:49;9.30;93.90
3678;DHT22;1855;50.934;6.958;2024-02-23T15:25:16;9.30;95.00
3678;DHT22;1855;50.934;6.958;2024-02-23T15:27:42;9.20;95.80
3678;DHT22;1855;50.934;6.958;2024-02-23T15:30:09;9.30;96.40
3678;DHT22;1855;50.934;6.958;2024-02-23T15:32:38;9.20;96.30
3678;DHT22;1855;50.934;6.958;2024-02-23T15:35:05;9.20;96.30
3678;DHT22;1855;50.934;6.958;2024-02-23T15:37:33;9.20;96.70
3678;DHT22;1855;50.934;6.958;2024-02-23T15:39:59;9.30;96.40
3678;DHT22;1855;50.934;6.958;2024-02-23T15:42:26;9.40;97.10
3678;DHT22;1855;50.934;6.958;2024-02-23T15:44:53;9.40;95.80
3678;DHT22;1855;50.934;6.958;2024-02-23T15:47:20;9.60;95.20
3678;DHT22;1855;50.934;6.958;2024-02-23T15:49:48;9.60;94.90
3678;DHT22;1855;50.934;6.958;2024-02-23T15:52:15;9.70;94.70
3678;DHT22;1855;50.934;6.958;2024-02-23T15:54:42;10.00;90.40
3678;DHT22;1855;50.934;6.958;2024-02-23T15:57:09;10.20;88.00
3678;DHT22;1855;50.934;6.958;2024-02-23T15:59:36;10.10;87.40
3678;DHT22;1855;50.934;6.958;2024-02-23T16:02:03;9.90;87.10
3678;DHT22;1855;50.934;6.958;2024-02-23T16:04:30;9.70;90.50
3678;DHT22;1855;50.934;6.958;2024-02-23T16:06:58;9.60;93.20
3678;DHT22;1855;50.934;6.958;2024-02-23T16:09:24;9.50;92.60
3678;DHT22;1855;50.934;6.958;2024-02-23T16:11:51;9.30;93.80
3678;DHT22;1855;50.934;6.958;2024-02-23T16:14:18;9.20;94.50
3678;DHT22;1855;50.934;6.958;2024-02-23T16:16:45;9.20;96.00
3678;DHT22;1855;50.934;6.958;2024-02-23T16:19:13;9.10;96.40
3678;DHT22;1855;50.934;6.958;2024-02-23T16:21:40;9.10;96.30
3678;DHT22;1855;50.934;6.958;2024-02-23T16:24:10;9.10;97.30
3678;DHT22;1855;50.934;6.958;2024-02-23T16:26:37;9.30;97.00
3678;DHT22;1855;50.934;6.958;2024-02-23T16:29:04;9.50;95.60
3678;DHT22;1855;50.934;6.958;2024-02-23T16:31:31;9.50;94.80
3678;DHT22;1855;50.934;6.958;2024-02-23T16:33:58;9.50;94.90
3678;DHT22;1855;50.934;6.958;2024-02-23T16:36:25;9.40;95.80
3678;DHT22;1855;50.934;6.958;2024-02-23T16:38:51;9.20;96.70
3678;DHT22;1855;50.934;6.958;2024-02-23T16:41:20;9.10;97.70
3678;DHT22;1855;50.934;6.958;2024-02-23T16:43:47;9.00;99.10
3678;DHT22;1855;50.934;6.958;2024-02-23T16:46:14;8.90;99.50
3678;DHT22;1855;50.934;6.958;2024-02-23T16:48:41;8.80;99.90
3678;DHT22;1855;50.934;6.958;2024-02-23T16:51:08;8.70;99.90
3678;DHT22;1855;50.934;6.958;2024-02-23T16:53:34;8.70;99.90
3678;DHT22;1855;50.934;6.958;2024-02-23T16:56:02;8.60;99.90
3678;DHT22;1855;50.934;6.958;2024-02-23T16:58:30;8.60;99.90
3678;DHT22;1855;50.934;6.958;2024-02-23T17:00:59;8.60;99.90
3678;DHT22;1855;50.934;6.958;2024-02-23T17:03:26;8.60;99.90
3678;DHT22;1855;50.934;6.958;2024-02-23T17:05:53;8.60;99.90
3678;DHT22;1855;50.934;6.958;2024-02-23T17:08:20;8.60;99.90
3678;DHT22;1855;50.934;6.958;2024-02-23T17:10:47;8.60;99.90
3678;DHT22;1855;50.934;6.958;2024-02-23T17:13:13;8.60;99.90
3678;DHT22;1855;50.934;6.958;2024-02-23T17:15:42;8.60;99.90
3678;DHT22;1855;50.934;6.958;2024-02-23T17:18:08;8.60;99.90
3678;DHT22;1855;50.934;6.958;2024-02-23T17:20:35;8.60;99.90
3678;DHT22;1855;50.934;6.958;2024-02-23T17:23:02;8.60;99.90
3678;DHT22;1855;50.934;6.958;2024-02-23T17:25:30;8.60;99.90
3678;DHT22;1855;50.934;6.958;2024-02-23T17:27:57;8.60;99.90
3678;DHT22;1855;50.934;6.958;2024-02-23T17:30:24;8.60;99.90
3678;DHT22;1855;50.934;6.958;2024-02-23T17:32:52;8.60;99.90
3678;DHT22;1855;50.934;6.958;2024-02-23T17:35:19;8.60;99.90
3678;DHT22;1855;50.934;6.958;2024-02-23T17:37:45;8.60;99.90
3678;DHT22;1855;50.934;6.958;2024-02-23T17:40:13;8.60;99.90
3678;DHT22;1855;50.934;6.958;2024-02-23T17:42:39;8.50;99.90
3678;DHT22;1855;50.934;6.958;2024-02-23T17:45:07;8.50;99.90
3678;DHT22;1855;50.934;6.958;2024-02-23T17:47:34;8.50;99.90
3678;DHT22;1855;50.934;6.958;2024-02-23T17:50:03;8.40;99.90
3678;DHT22;1855;50.934;6.958;2024-02-23T17:52:30;8.40;99.90
3678;DHT22;1855;50.934;6.958;2024-02-23T17:54:58;8.30;99.90
3678;DHT22;1855;50.934;6.958;2024-02-23T17:57:25;8.20;99.90
3678;DHT22;1855;50.934;6.958;2024-02-23T17:59:51;8.20;99.90
3678;DHT22;1855;50.934;6.958;2024-02-23T18:02:18;8.10;99.90
3678;DHT22;1855;50.934;6.958;2024-02-23T18:04:45;8.00;99.90
3678;DHT22;1855;50.934;6.958;2024-02-23T18:07:13;7.90;99.90
3678;DHT22;1855;50.934;6.958;2024-02-23T18:09:40;7.90;99.90
3678;DHT22;1855;50.934;6.958;2024-02-23T18:12:07;7.90;99.90
3678;DHT22;1855;50.934;6.958;2024-02-23T18:14:35;7.90;99.90
3678;DHT22;1855;50.934;6.958;2024-02-23T18:17:02;7.80;99.90
3678;DHT22;1855;50.934;6.958;2024-02-23T18:19:29;7.80;99.90
3678;DHT22;1855;50.934;6.958;2024-02-23T18:21:56;7.80;99.90
3678;DHT22;1855;50.934;6.958;2024-02-23T18:24:24;7.80;99.90
3678;DHT22;1855;50.934;6.958;2024-02-23T18:26:51;7.70;99.90
3678;DHT22;1855;50.934;6.958;2024-02-23T18:29:18;7.70;99.90
3678;DHT22;1855;50.934;6.958;2024-02-23T18:31:44;7.70;99.90
3678;DHT22;1855;50.934;6.958;2024-02-23T18:34:12;7.70;99.90
3678;DHT22;1855;50.934;6.958;2024-02-23T18:36:38;7.80;99.90
3678;DHT22;1855;50.934;6.958;2024-02-23T18:39:05;7.70;99.90
3678;DHT22;1855;50.934;6.958;2024-02-23T18:41:36;7.70;99.90
3678;DHT22;1855;50.934;6.958;2024-02-23T18:44:03;7.70;99.90
3678;DHT22;1855;50.934;6.958;2024-02-23T18:46:31;7.70;99.90
3678;DHT22;1855;50.934;6.958;2024-02-23T18:48:58;7.70;99.90
3678;DHT22;1855;50.934;6.958;2024-02-23T18:51:25;7.70;99.90
3678;DHT22;1855;50.934;6.958;2024-02-23T18:53:54;7.70;99.90
3678;DHT22;1855;50.934;6.958;2024-02-23T18:56:21;7.70;99.90
3678;DHT22;1855;50.934;6.958;2024-02-23T18:58:49;7.80;99.90
3678;DHT22;1855;50.934;6.958;2024-02-23T19:01:17;7.80;99.90
3678;DHT22;1855;50.934;6.958;2024-02-23T19:03:43;7.90;99.90
3678;DHT22;1855;50.934;6.958;2024-02-23T19:06:10;7.90;99.90
3678;DHT22;1855;50.934;6.958;2024-02-23T19:08:37;7.80;99.90
3678;DHT22;1855;50.934;6.958;2024-02-23T19:11:04;7.70;99.90
3678;DHT22;1855;50.934;6.958;2024-02-23T19:13:31;7.70;99.90
3678;DHT22;1855;50.934;6.958;2024-02-23T19:15:59;7.60;99.90
3678;DHT22;1855;50.934;6.958;2024-02-23T19:18:26;7.40;99.90
3678;DHT22;1855;50.934;6.958;2024-02-23T19:20:52;7.30;99.90
3678;DHT22;1855;50.934;6.958;2024-02-23T19:23:19;7.20;99.90
3678;DHT22;1855;50.934;6.958;2024-02-23T19:25:46;7.10;99.90
3678;DHT22;1855;50.934;6.958;2024-02-23T19:28:13;7.10;99.90
3678;DHT22;1855;50.934;6.958;2024-02-23T19:30:39;7.10;99.90
3678;DHT22;1855;50.934;6.958;2024-02-23T19:33:09;7.00;99.90
3678;DHT22;1855;50.934;6.958;2024-02-23T19:35:36;7.00;99.90
3678;DHT22;1855;50.934;6.958;2024-02-23T19:38:03;7.00;99.90
3678;DHT22;1855;50.934;6.958;2024-02-23T19:40:30;7.00;99.90
3678;DHT22;1855;50.934;6.958;2024-02-23T19:42:57;7.00;99.90
3678;DHT22;1855;50.934;6.958;2024-02-23T19:45:24;7.00;99.90
3678;DHT22;1855;50.934;6.958;2024-02-23T19:47:51;7.00;99.90
3678;DHT22;1855;50.934;6.958;2024-02-23T19:50:18;7.00;99.90
3678;DHT22;1855;50.934;6.958;2024-02-23T19:52:45;6.90;99.90
3678;DHT22;1855;50.934;6.958;2024-02-23T19:55:11;6.90;99.90
3678;DHT22;1855;50.934;6.958;2024-02-23T19:57:38;6.80;99.90
3678;DHT22;1855;50.934;6.958;2024-02-23T20:00:06;6.80;99.90
3678;DHT22;1855;50.934;6.958;2024-02-23T20:02:33;6.80;99.90
3678;DHT22;1855;50.934;6.958;2024-02-23T20:05:00;6.80;99.90
3678;DHT22;1855;50.934;6.958;2024-02-23T20:07:28;6.70;99.90
3678;DHT22;1855;50.934;6.958;2024-02-23T20:09:55;6.70;99.90
3678;DHT22;1855;50.934;6.958;2024-02-23T20:12:21;6.70;99.90
3678;DHT22;1855;50.934;6.958;2024-02-23T20:14:48;6.60;99.90
3678;DHT22;1855;50.934;6.958;2024-02-23T20:17:16;6.60;99.90
3678;DHT22;1855;50.934;6.958;2024-02-23T20:19:43;6.60;99.90
3678;DHT22;1855;50.934;6.958;2024-02-23T20:22:10;6.60;99.90
3678;DHT22;1855;50.934;6.958;2024-02-23T20:24:40;6.50;99.90
3678;DHT22;1855;50.934;6.958;2024-02-23T20:27:07;6.40;99.90
3678;DHT22;1855;50.934;6.958;2024-02-23T20:29:34;6.50;99.90
3678;DHT22;1855;50.934;6.958;2024-02-23T20:32:00;6.50;99.90
3678;DHT22;1855;50.934;6.958;2024-02-23T20:34:30;6.50;99.90
3678;DHT22;1855;50.934;6.958;2024-02-23T20:36:56;6.50;99.90
3678;DHT22;1855;50.934;6.958;2024-02-23T20:39:23;6.50;99.90
3678;DHT22;1855;50.934;6.958;2024-02-23T20:41:51;6.50;99.90
3678;DHT22;1855;50.934;6.958;2024-02-23T20:44:18;6.50;99.90
3678;DHT22;1855;50.934;6.958;2024-02-23T20:46:46;6.50;99.90
3678;DHT22;1855;50.934;6.958;2024-02-23T20:49:13;6.50;99.90
3678;DHT22;1855;50.934;6.958;2024-02-23T20:51:40;6.50;99.90
3678;DHT22;1855;50.934;6.958;2024-02-23T20:54:08;6.50;99.90
3678;DHT22;1855;50.934;6.958;2024-02-23T20:56:35;6.50;99.90
3678;DHT22;1855;50.934;6.958;2024-02-23T20:59:03;6.50;99.90
3678;DHT22;1855;50.934;6.958;2024-02-23T21:01:30;6.50;99.90
3678;DHT22;1855;50.934;6.958;2024-02-23T21:03:57;6.50;99.90
3678;DHT22;1855;50.934;6.958;2024-02-23T21:06:26;6.50;99.90
3678;DHT22;1855;50.934;6.958;2024-02-23T21:08:53;6.40;99.90
3678;DHT22;1855;50.934;6.958;2024-02-23T21:11:20;6.40;99.90
3678;DHT22;1855;50.934;6.958;2024-02-23T21:13:47;6.50;99.90
3678;DHT22;1855;50.934;6.958;2024-02-23T21:16:15;6.50;99.90
3678;DHT22;1855;50.934;6.958;2024-02-23T21:18:42;6.50;99.90
3678;DHT22;1855;50.934;6.958;2024-02-23T21:21:09;6.50;99.90
3678;DHT22;1855;50.934;6.958;2024-02-23T21:23:35;6.50;99.90
3678;DHT22;1855;50.934;6.958;2024-02-23T21:26:02;6.60;99.90
3678;DHT22;1855;50.934;6.958;2024-02-23T21:28:29;6.60;99.90
3678;DHT22;1855;50.934;6.958;2024-02-23T21:30:56;6.60;99.90
3678;DHT22;1855;50.934;6.958;2024-02-23T21:33:30;6.60;99.90
3678;DHT22;1855;50.934;6.958;2024-02-23T21:35:57;6.50;99.90
3678;DHT22;1855;50.934;6.958;2024-02-23T21:38:24;6.50;99.90
3678;DHT22;1855;50.934;6.958;2024-02-23T21:40:50;6.50;99.90
3678;DHT22;1855;50.934;6.958;2024-02-23T21:43:17;6.50;99.90